Time;durP1;ratioP1;P1;durP2;ratioP2;P2;SDS_P1;SDS_P2;PMS_P1;PMS_P2;Temp;Humidity;BMP_temperature;BMP_pressure;BME280_temperature;BME280_humidity;BME280_pressure;Samples;Min_cycle;Max_cycle;Signal;HPM_P1;HPM_P2
2022/06/06 00:01:17;;;;;;;2.45;1.48;;;;;;;;;;4750587;30;20127;-56
2022/06/06 00:03:45;;;;;;;2.08;0.57;;;;;;;;;;4750730;30;20060;-55
2022/06/06 00:06:17;;;;;;;1.40;0.63;;;;;;;;;;4750627;30;20052;-54
2022/06/06 00:08:46;;;;;;;3.50;0.55;;;;;;;;;;4750682;30;20082;-53
2022/06/06 00:11:13;;;;;;;1.20;0.43;;;;;;;;;;4750568;30;20516;-55
2022/06/06 00:13:43;;;;;;;0.82;0.50;;;;;;;;;;4750383;30;20060;-52
2022/06/06 00:16:12;;;;;;;1.98;0.60;;;;;;;;;;4750572;30;20568;-54
2022/06/06 00:18:43;;;;;;;1.40;0.63;;;;;;;;;;4750531;30;20052;-51
2022/06/06 00:21:12;;;;;;;2.55;0.43;;;;;;;;;;4750597;30;20412;-54
2022/06/06 00:23:39;;;;;;;1.90;0.55;;;;;;;;;;4750259;30;20123;-54
2022/06/06 00:26:13;;;;;;;3.08;0.82;;;;;;;;;;4750564;30;20049;-55
2022/06/06 00:28:45;;;;;;;4.00;0.68;;;;;;;;;;4750441;30;20044;-51
2022/06/06 00:36:46;;;;;;;1.73;0.60;;;;;;;;;;4750313;30;20060;-52
2022/06/06 00:39:15;;;;;;;3.30;0.80;;;;;;;;;;4761794;30;20139;-55
2022/06/06 00:41:46;;;;;;;0.95;0.45;;;;;;;;;;4732907;30;20132;-55
2022/06/06 00:44:19;;;;;;;0.40;0.30;;;;;;;;;;4732727;30;20088;-52
2022/06/06 00:46:52;;;;;;;3.10;0.57;;;;;;;;;;4732810;30;20351;-53
2022/06/06 00:49:26;;;;;;;2.13;0.60;;;;;;;;;;4732829;30;20048;-52
2022/06/06 00:52:04;;;;;;;3.40;0.50;;;;;;;;;;4732890;30;20131;-52
2022/06/06 00:54:31;;;;;;;2.85;0.52;;;;;;;;;;4733001;30;20048;-54
2022/06/06 00:57:07;;;;;;;4.03;0.52;;;;;;;;;;4732631;30;20084;-51
2022/06/06 00:59:36;;;;;;;1.17;0.63;;;;;;;;;;4732502;30;20551;-54
2022/06/06 01:02:06;;;;;;;1.02;0.47;;;;;;;;;;4735307;30;20056;-54
2022/06/06 01:04:34;;;;;;;3.30;0.50;;;;;;;;;;4735750;30;20059;-52
2022/06/06 01:07:04;;;;;;;2.05;0.60;;;;;;;;;;4735963;30;20084;-49
2022/06/06 01:09:32;;;;;;;0.75;0.40;;;;;;;;;;4735864;30;20044;-51
2022/06/06 01:12:04;;;;;;;2.10;1.00;;;;;;;;;;4736017;30;20040;-54
2022/06/06 01:14:37;;;;;;;1.55;0.60;;;;;;;;;;4764025;30;20470;-52
2022/06/06 01:17:24;;;;;;;1.75;0.60;;;;;;;;;;4735585;30;20052;-50
2022/06/06 01:20:21;;;;;;;0.65;0.50;;;;;;;;;;4735509;30;20045;-51
2022/06/06 01:23:25;;;;;;;1.42;0.60;;;;;;;;;;4735545;30;20148;-54
2022/06/06 01:26:21;;;;;;;0.52;0.40;;;;;;;;;;4735453;30;20398;-52
2022/06/06 01:29:04;;;;;;;1.75;0.50;;;;;;;;;;4735389;30;20131;-53
2022/06/06 01:32:06;;;;;;;0.75;0.38;;;;;;;;;;4735613;30;20107;-55
2022/06/06 01:34:39;;;;;;;2.15;0.93;;;;;;;;;;4715198;30;20060;-52
2022/06/06 01:37:38;;;;;;;3.08;0.65;;;;;;;;;;4735279;30;20497;-54
2022/06/06 01:40:11;;;;;;;1.13;0.50;;;;;;;;;;4735248;30;20052;-51
2022/06/06 01:42:58;;;;;;;0.95;0.40;;;;;;;;;;4735084;30;20056;-54
2022/06/06 01:45:35;;;;;;;2.58;0.60;;;;;;;;;;4735068;30;20157;-53
2022/06/06 01:48:17;;;;;;;1.17;0.50;;;;;;;;;;4735129;30;20055;-50
2022/06/06 01:50:45;;;;;;;0.80;0.50;;;;;;;;;;4748388;30;20517;-49
2022/06/06 01:53:18;;;;;;;0.95;0.40;;;;;;;;;;4734974;30;20146;-54
2022/06/06 01:55:48;;;;;;;2.13;0.60;;;;;;;;;;4739683;30;20040;-54
2022/06/06 01:58:23;;;;;;;0.65;0.40;;;;;;;;;;4752433;30;20055;-54
2022/06/06 02:00:51;;;;;;;0.73;0.40;;;;;;;;;;4752504;30;20444;-54
2022/06/06 02:03:19;;;;;;;2.05;0.50;;;;;;;;;;4752571;30;20054;-53
2022/06/06 02:05:46;;;;;;;1.63;0.50;;;;;;;;;;4752257;30;20072;-53
2022/06/06 02:08:14;;;;;;;1.05;0.40;;;;;;;;;;4752304;30;20076;-54
2022/06/06 02:10:42;;;;;;;3.95;0.60;;;;;;;;;;4752230;30;20124;-54
2022/06/06 02:13:10;;;;;;;4.13;0.68;;;;;;;;;;4752052;30;20047;-54
2022/06/06 02:15:37;;;;;;;2.45;0.68;;;;;;;;;;4752227;30;20107;-50
2022/06/06 02:18:05;;;;;;;1.23;0.60;;;;;;;;;;4765556;30;20040;-53
2022/06/06 02:20:33;;;;;;;1.25;0.75;;;;;;;;;;4752174;30;20535;-52
2022/06/06 02:23:02;;;;;;;2.00;0.57;;;;;;;;;;4752366;30;20056;-54
2022/06/06 02:25:30;;;;;;;2.65;0.50;;;;;;;;;;4752094;30;20088;-52
2022/06/06 02:27:57;;;;;;;0.95;0.43;;;;;;;;;;4752064;30;20127;-54
2022/06/06 02:30:29;;;;;;;1.60;0.50;;;;;;;;;;4752011;30;20052;-55
2022/06/06 02:32:57;;;;;;;1.30;0.50;;;;;;;;;;4751852;30;20056;-52
2022/06/06 02:35:30;;;;;;;3.50;0.45;;;;;;;;;;4752081;30;20088;-51
2022/06/06 02:37:58;;;;;;;1.38;0.50;;;;;;;;;;4751917;30;20048;-52
2022/06/06 02:40:28;;;;;;;2.42;0.70;;;;;;;;;;4751899;30;20056;-54
2022/06/06 02:42:56;;;;;;;0.73;0.30;;;;;;;;;;4751710;30;20134;-53
2022/06/06 02:45:23;;;;;;;0.90;0.50;;;;;;;;;;4751524;30;20229;-53
2022/06/06 02:47:57;;;;;;;1.58;0.45;;;;;;;;;;4751341;30;20401;-51
2022/06/06 02:50:28;;;;;;;1.10;0.50;;;;;;;;;;4751681;30;20105;-53
2022/06/06 02:52:56;;;;;;;1.33;0.57;;;;;;;;;;4751499;30;20051;-53
2022/06/06 02:55:24;;;;;;;1.70;0.60;;;;;;;;;;4749570;30;20059;-52
2022/06/06 02:57:52;;;;;;;1.38;0.57;;;;;;;;;;4733676;30;20041;-49
2022/06/06 03:00:26;;;;;;;3.88;0.50;;;;;;;;;;4733795;30;20510;-54
2022/06/06 03:02:54;;;;;;;1.55;0.35;;;;;;;;;;4733893;30;20060;-53
2022/06/06 03:05:21;;;;;;;1.17;0.68;;;;;;;;;;4733615;30;20087;-54
2022/06/06 03:08:11;;;;;;;1.55;0.55;;;;;;;;;;4733774;30;20055;-52
2022/06/06 03:11:06;;;;;;;0.98;0.45;;;;;;;;;;4733826;30;20106;-54
2022/06/06 03:13:52;;;;;;;0.85;0.50;;;;;;;;;;4733688;30;20053;-51
2022/06/06 03:22:56;;;;;;;2.92;1.02;;;;;;;;;;4733516;30;20056;-52
2022/06/06 03:25:44;;;;;;;2.58;0.60;;;;;;;;;;4732421;30;20051;-52
2022/06/06 03:28:27;;;;;;;1.00;0.50;;;;;;;;;;4733696;30;20045;-54
2022/06/06 03:30:54;;;;;;;1.33;0.52;;;;;;;;;;4733327;30;20056;-51
2022/06/06 03:33:32;;;;;;;1.30;0.40;;;;;;;;;;4733329;30;20102;-55
2022/06/06 03:36:22;;;;;;;0.65;0.30;;;;;;;;;;4733465;30;20049;-54
2022/06/06 03:39:07;;;;;;;0.65;0.40;;;;;;;;;;4733217;30;20048;-54
2022/06/06 03:42:01;;;;;;;1.45;0.40;;;;;;;;;;4733243;30;20052;-53
2022/06/06 03:44:54;;;;;;;2.55;0.43;;;;;;;;;;4761601;30;20111;-53
2022/06/06 03:47:33;;;;;;;2.60;0.50;;;;;;;;;;4733224;30;20059;-53
2022/06/06 03:50:45;;;;;;;1.05;0.40;;;;;;;;;;4733200;30;20430;-52
2022/06/06 03:53:21;;;;;;;3.35;0.60;;;;;;;;;;4696042;30;20518;-53
2022/06/06 03:56:06;;;;;;;1.67;0.30;;;;;;;;;;4733438;30;20095;-55
2022/06/06 03:58:34;;;;;;;0.40;0.40;;;;;;;;;;4750431;30;20084;-49
2022/06/06 04:01:05;;;;;;;4.07;0.50;;;;;;;;;;4751131;30;20040;-54
2022/06/06 04:03:35;;;;;;;1.35;0.40;;;;;;;;;;4764332;30;20059;-55
2022/06/06 04:06:03;;;;;;;4.28;1.40;;;;;;;;;;4750976;30;20052;-58
2022/06/06 04:08:32;;;;;;;3.42;1.40;;;;;;;;;;4750663;30;20072;-51
2022/06/06 04:11:05;;;;;;;1.60;0.70;;;;;;;;;;4750735;30;20048;-53
2022/06/06 04:13:35;;;;;;;2.20;0.50;;;;;;;;;;4750873;30;20102;-51
2022/06/06 04:16:22;;;;;;;1.58;0.30;;;;;;;;;;4750929;30;20052;-54
2022/06/06 04:19:11;;;;;;;0.82;0.38;;;;;;;;;;4750507;30;20048;-54
2022/06/06 04:22:04;;;;;;;0.47;0.30;;;;;;;;;;4750603;30;20044;-50
2022/06/06 04:25:13;;;;;;;1.23;0.43;;;;;;;;;;4750747;30;20084;-54
2022/06/06 04:27:58;;;;;;;1.33;0.47;;;;;;;;;;4748912;30;20063;-52
2022/06/06 04:30:53;;;;;;;1.85;0.30;;;;;;;;;;4750636;30;20075;-50
2022/06/06 04:33:25;;;;;;;2.03;0.43;;;;;;;;;;4750466;30;20119;-53
2022/06/06 04:36:04;;;;;;;3.78;0.45;;;;;;;;;;4751531;30;20086;-53
2022/06/06 04:38:53;;;;;;;1.30;0.45;;;;;;;;;;4754096;30;20102;-54
2022/06/06 04:41:30;;;;;;;1.08;0.30;;;;;;;;;;4757556;29;20052;-50
2022/06/06 04:44:00;;;;;;;1.85;0.40;;;;;;;;;;4753683;30;20390;-54
2022/06/06 04:46:32;;;;;;;1.35;0.40;;;;;;;;;;4753751;30;20128;-47
2022/06/06 04:49:00;;;;;;;1.33;0.30;;;;;;;;;;4736277;30;20502;-53
2022/06/06 04:51:28;;;;;;;1.38;0.55;;;;;;;;;;4735990;30;20044;-54
2022/06/06 04:53:57;;;;;;;1.85;0.50;;;;;;;;;;4735925;30;20048;-54
2022/06/06 04:56:25;;;;;;;0.20;0.20;;;;;;;;;;4735870;30;20586;-54
2022/06/06 04:58:57;;;;;;;4.35;1.25;;;;;;;;;;4735511;30;20093;-58
2022/06/06 05:01:26;;;;;;;0.65;0.30;;;;;;;;;;4735949;30;20143;-58
2022/06/06 05:03:53;;;;;;;1.85;0.25;;;;;;;;;;4735789;30;20080;-58
2022/06/06 05:06:45;;;;;;;0.30;0.20;;;;;;;;;;4735899;30;20128;-58
2022/06/06 05:09:45;;;;;;;1.58;0.40;;;;;;;;;;4735656;30;20132;-56
2022/06/06 05:12:42;;;;;;;2.75;0.30;;;;;;;;;;4733708;30;20118;-57
2022/06/06 05:15:50;;;;;;;1.45;0.32;;;;;;;;;;4735634;30;20052;-57
2022/06/06 05:18:39;;;;;;;1.52;0.30;;;;;;;;;;4717639;30;20075;-57
2022/06/06 05:21:13;;;;;;;2.00;0.50;;;;;;;;;;4735362;30;20425;-57
2022/06/06 05:24:32;;;;;;;0.20;0.20;;;;;;;;;;4735214;30;20505;-56
2022/06/06 05:27:27;;;;;;;1.45;0.28;;;;;;;;;;4698440;30;20060;-57
2022/06/06 05:30:07;;;;;;;2.17;0.30;;;;;;;;;;4735283;30;20140;-57
2022/06/06 05:32:39;;;;;;;2.42;1.00;;;;;;;;;;4735304;30;20075;-52
2022/06/06 05:35:18;;;;;;;2.05;1.02;;;;;;;;;;4735500;30;20053;-57
2022/06/06 05:37:52;;;;;;;0.60;0.30;;;;;;;;;;4735362;30;20057;-57
2022/06/06 05:40:36;;;;;;;0.30;0.20;;;;;;;;;;4738770;30;20052;-57
2022/06/06 05:43:14;;;;;;;0.50;0.30;;;;;;;;;;4735500;30;20128;-58
2022/06/06 05:45:44;;;;;;;0.50;0.20;;;;;;;;;;4735166;30;20049;-57
2022/06/06 05:48:44;;;;;;;0.35;0.25;;;;;;;;;;4734891;30;20127;-56
2022/06/06 05:51:42;;;;;;;2.42;0.30;;;;;;;;;;4734915;30;20052;-54
2022/06/06 05:54:32;;;;;;;2.80;1.05;;;;;;;;;;4734930;30;20506;-55
2022/06/06 05:57:09;;;;;;;0.93;0.40;;;;;;;;;;4748795;30;20051;-57
2022/06/06 05:59:55;;;;;;;0.63;0.20;;;;;;;;;;4752521;30;20200;-54
2022/06/06 06:02:34;;;;;;;3.20;0.22;;;;;;;;;;4752525;30;20059;-54
2022/06/06 06:05:32;;;;;;;0.22;0.20;;;;;;;;;;4752604;30;20063;-57
2022/06/06 06:08:23;;;;;;;0.20;0.20;;;;;;;;;;4746373;30;20167;-58
2022/06/06 06:11:24;;;;;;;1.10;0.30;;;;;;;;;;4752376;30;20120;-57
2022/06/06 06:14:13;;;;;;;1.80;0.30;;;;;;;;;;4751043;30;20516;-56
2022/06/06 06:16:49;;;;;;;2.38;0.30;;;;;;;;;;4752006;30;20055;-58
2022/06/06 06:19:20;;;;;;;0.82;0.30;;;;;;;;;;4752367;30;20044;-58
2022/06/06 06:21:53;;;;;;;1.10;0.40;;;;;;;;;;4752212;30;20056;-58
2022/06/06 06:24:28;;;;;;;2.72;0.20;;;;;;;;;;4752141;30;20517;-57
2022/06/06 06:26:57;;;;;;;2.13;0.47;;;;;;;;;;4751951;30;20527;-58
2022/06/06 06:29:25;;;;;;;7.15;3.45;;;;;;;;;;4752111;30;20261;-56
2022/06/06 06:31:52;;;;;;;4.32;0.77;;;;;;;;;;4751900;30;20067;-53
2022/06/06 06:34:49;;;;;;;0.52;0.20;;;;;;;;;;4751893;30;20052;-54
2022/06/06 06:37:42;;;;;;;0.77;0.30;;;;;;;;;;4751925;30;20143;-56
2022/06/06 06:40:13;;;;;;;0.68;0.30;;;;;;;;;;4751725;30;20067;-54
2022/06/06 06:42:56;;;;;;;3.60;0.30;;;;;;;;;;4780344;30;20052;-53
2022/06/06 06:45:36;;;;;;;3.65;0.30;;;;;;;;;;4751720;30;20048;-58
2022/06/06 06:48:11;;;;;;;0.63;0.28;;;;;;;;;;4752053;30;20056;-58
2022/06/06 06:50:44;;;;;;;2.20;0.40;;;;;;;;;;4751689;30;20040;-58
2022/06/06 06:53:29;;;;;;;4.50;0.40;;;;;;;;;;4751680;30;20096;-58
2022/06/06 06:55:59;;;;;;;1.23;0.75;;;;;;;;;;4745396;30;20045;-54
2022/06/06 06:58:44;;;;;;;2.05;0.30;;;;;;;;;;4733272;30;20461;-52
2022/06/06 07:01:19;;;;;;;1.77;0.30;;;;;;;;;;4734024;30;20056;-53
2022/06/06 07:10:20;;;;;;;0.55;0.35;;;;;;;;;;4733826;30;20131;-56
2022/06/06 07:13:07;;;;;;;6.38;2.50;;;;;;;;;;4733565;30;20496;-62
2022/06/06 07:15:43;;;;;;;2.20;0.40;;;;;;;;;;4733965;30;20045;-57
2022/06/06 07:18:15;;;;;;;1.65;0.30;;;;;;;;;;4733572;30;20127;-55
2022/06/06 07:20:45;;;;;;;0.32;0.30;;;;;;;;;;4733553;30;20072;-55
2022/06/06 07:23:15;;;;;;;0.40;0.30;;;;;;;;;;4733579;30;20131;-57
2022/06/06 07:25:48;;;;;;;1.27;0.30;;;;;;;;;;4733543;30;20056;-54
2022/06/06 07:28:21;;;;;;;3.72;0.40;;;;;;;;;;4733425;30;20093;-53
2022/06/06 07:30:51;;;;;;;2.28;0.30;;;;;;;;;;4733400;30;20498;-52
2022/06/06 07:33:27;;;;;;;0.52;0.30;;;;;;;;;;4733515;30;20131;-55
2022/06/06 07:36:29;;;;;;;1.00;0.30;;;;;;;;;;4733512;30;20055;-54
2022/06/06 07:39:40;;;;;;;3.97;0.30;;;;;;;;;;4708841;30;20118;-56
2022/06/06 07:42:39;;;;;;;5.50;2.25;;;;;;;;;;4733394;30;20076;-52
2022/06/06 07:45:55;;;;;;;1.92;0.80;;;;;;;;;;4733287;30;20524;-56
2022/06/06 07:49:03;;;;;;;5.35;0.50;;;;;;;;;;4679026;30;20050;-57
2022/06/06 07:51:56;;;;;;;1.63;0.40;;;;;;;;;;4678658;30;20101;-54
2022/06/06 07:54:43;;;;;;;2.28;0.20;;;;;;;;;;4730121;30;20141;-53
2022/06/06 07:57:16;;;;;;;0.82;0.20;;;;;;;;;;4748202;30;20048;-49
2022/06/06 07:59:53;;;;;;;4.07;0.65;;;;;;;;;;4750675;30;20114;-50
2022/06/06 08:02:46;;;;;;;8.45;3.20;;;;;;;;;;4750632;30;20132;-52
2022/06/06 08:05:22;;;;;;;2.75;0.40;;;;;;;;;;4750521;30;20122;-58
2022/06/06 08:08:07;;;;;;;5.13;0.40;;;;;;;;;;4750742;30;20048;-54
2022/06/06 08:10:45;;;;;;;2.63;0.40;;;;;;;;;;4753079;30;20044;-57
2022/06/06 08:13:59;;;;;;;1.95;0.40;;;;;;;;;;4754390;30;20509;-57
2022/06/06 08:16:36;;;;;;;1.58;0.40;;;;;;;;;;4754355;30;20052;-56
2022/06/06 08:19:13;;;;;;;0.65;0.30;;;;;;;;;;4754566;30;20155;-56
2022/06/06 08:21:43;;;;;;;2.30;0.40;;;;;;;;;;4754206;30;20082;-55
2022/06/06 08:24:19;;;;;;;2.75;0.30;;;;;;;;;;4754226;30;20052;-56
2022/06/06 08:27:10;;;;;;;0.30;0.20;;;;;;;;;;4754162;30;20056;-56
2022/06/06 08:29:40;;;;;;;1.20;0.60;;;;;;;;;;4754209;30;20044;-54
2022/06/06 08:32:08;;;;;;;20.27;10.48;;;;;;;;;;4754347;30;20052;-57
2022/06/06 08:34:35;;;;;;;1.75;0.40;;;;;;;;;;4754048;30;20051;-55
2022/06/06 08:37:27;;;;;;;1.10;0.30;;;;;;;;;;4754005;30;20044;-56
2022/06/06 08:39:59;;;;;;;1.30;0.50;;;;;;;;;;4753852;30;20482;-55
2022/06/06 08:42:42;;;;;;;5.28;0.65;;;;;;;;;;4754020;30;20044;-48
2022/06/06 08:45:15;;;;;;;3.03;0.30;;;;;;;;;;4753905;30;20127;-55
2022/06/06 08:47:51;;;;;;;1.10;0.40;;;;;;;;;;4753847;30;20101;-58
2022/06/06 08:50:49;;;;;;;0.40;0.30;;;;;;;;;;4753841;30;20451;-57
2022/06/06 08:53:25;;;;;;;0.20;0.20;;;;;;;;;;4753540;30;20044;-56
2022/06/06 08:56:33;;;;;;;1.98;0.35;;;;;;;;;;4747895;30;20080;-57
2022/06/06 08:59:22;;;;;;;2.90;0.45;;;;;;;;;;4735831;30;20493;-57
2022/06/06 09:02:39;;;;;;;1.10;0.40;;;;;;;;;;4735451;30;20091;-55
2022/06/06 09:05:23;;;;;;;0.65;0.30;;;;;;;;;;4736013;30;20153;-57
2022/06/06 09:08:03;;;;;;;0.40;0.30;;;;;;;;;;4735771;30;20102;-56
2022/06/06 09:10:38;;;;;;;3.65;0.52;;;;;;;;;;4735843;30;20056;-57
2022/06/06 09:13:19;;;;;;;1.88;0.40;;;;;;;;;;4735623;30;20052;-55
2022/06/06 09:16:16;;;;;;;0.35;0.20;;;;;;;;;;4735456;30;20557;-54
2022/06/06 09:19:22;;;;;;;0.30;0.30;;;;;;;;;;4735608;30;20084;-57
2022/06/06 09:22:08;;;;;;;0.30;0.30;;;;;;;;;;4734758;30;20049;-53
2022/06/06 09:25:00;;;;;;;2.10;0.20;;;;;;;;;;4735490;30;20502;-49
2022/06/06 09:27:39;;;;;;;1.20;0.28;;;;;;;;;;4735436;30;20056;-50
2022/06/06 09:30:40;;;;;;;7.63;5.50;;;;;;;;;;4735469;30;20076;-47
2022/06/06 09:33:29;;;;;;;2.10;0.70;;;;;;;;;;4735529;30;21509;-50
2022/06/06 09:36:17;;;;;;;5.60;0.40;;;;;;;;;;4735193;30;20465;-54
2022/06/06 09:38:54;;;;;;;1.25;0.32;;;;;;;;;;4748464;30;20060;-52
2022/06/06 09:41:34;;;;;;;0.60;0.30;;;;;;;;;;4735100;30;20111;-52
2022/06/06 09:44:35;;;;;;;6.50;1.45;;;;;;;;;;4735170;30;20051;-50
2022/06/06 09:47:05;;;;;;;2.92;0.30;;;;;;;;;;4735075;30;20057;-51
2022/06/06 09:50:18;;;;;;;1.75;0.30;;;;;;;;;;4735112;30;20052;-52
2022/06/06 09:53:30;;;;;;;0.60;0.30;;;;;;;;;;4734210;30;20518;-49
2022/06/06 09:59:31;;;;;;;1.42;0.60;;;;;;;;;;4752611;30;20068;-54
2022/06/06 10:02:17;;;;;;;2.05;0.40;;;;;;;;;;4752656;30;20123;-53
2022/06/06 10:05:03;;;;;;;1.50;0.30;;;;;;;;;;4752298;30;20071;-52
2022/06/06 10:07:59;;;;;;;2.90;0.40;;;;;;;;;;4752372;30;20044;-51
2022/06/06 10:10:42;;;;;;;1.15;0.38;;;;;;;;;;4752482;30;20520;-49
2022/06/06 10:13:36;;;;;;;0.95;0.30;;;;;;;;;;4752622;30;20044;-55
2022/06/06 10:16:42;;;;;;;2.33;0.60;;;;;;;;;;4752438;30;20048;-55
2022/06/06 10:19:19;;;;;;;22.95;10.82;;;;;;;;;;4752413;30;20066;-49
2022/06/06 10:22:06;;;;;;;3.25;1.02;;;;;;;;;;4752102;30;20056;-53
2022/06/06 10:24:47;;;;;;;1.00;0.40;;;;;;;;;;4752073;30;20126;-50
2022/06/06 10:27:24;;;;;;;0.65;0.32;;;;;;;;;;4752176;30;20102;-55
2022/06/06 10:30:16;;;;;;;0.90;0.35;;;;;;;;;;4752098;30;20557;-52
2022/06/06 10:33:02;;;;;;;3.90;0.40;;;;;;;;;;4752041;30;20128;-55
2022/06/06 10:36:17;;;;;;;3.17;0.50;;;;;;;;;;4751916;30;20054;-54
2022/06/06 10:39:05;;;;;;;0.38;0.38;;;;;;;;;;4749875;30;20052;-55
2022/06/06 10:42:24;;;;;;;13.75;10.13;;;;;;;;;;4749673;30;20084;-55
2022/06/06 10:45:22;;;;;;;6.65;3.45;;;;;;;;;;4725138;30;20056;-54
2022/06/06 10:48:01;;;;;;;2.28;0.73;;;;;;;;;;4751660;30;20060;-53
2022/06/06 10:54:20;;;;;;;0.60;0.20;;;;;;;;;;4751768;30;20049;-54
2022/06/06 10:57:09;;;;;;;1.15;0.38;;;;;;;;;;4739092;30;20131;-55
2022/06/06 10:59:39;;;;;;;39.47;35.78;;;;;;;;;;4733928;30;20049;-57
2022/06/06 11:02:28;;;;;;;1.75;0.57;;;;;;;;;;4734077;30;20074;-53
2022/06/06 11:05:14;;;;;;;0.32;0.30;;;;;;;;;;4733686;30;20048;-52
2022/06/06 11:07:46;;;;;;;1.55;0.85;;;;;;;;;;4733733;30;20048;-54
2022/06/06 11:10:25;;;;;;;2.20;0.30;;;;;;;;;;4733890;30;20456;-57
2022/06/06 11:13:00;;;;;;;1.30;0.40;;;;;;;;;;4733628;30;20681;-54
2022/06/06 11:15:38;;;;;;;4.65;0.52;;;;;;;;;;4733792;30;20060;-55
2022/06/06 11:18:33;;;;;;;1.55;0.40;;;;;;;;;;4733525;30;20124;-56
2022/06/06 11:21:31;;;;;;;0.10;0.10;;;;;;;;;;4733609;30;20044;-54
2022/06/06 11:24:25;;;;;;;0.60;0.30;;;;;;;;;;4733621;30;20049;-54
2022/06/06 11:27:05;;;;;;;4.10;1.42;;;;;;;;;;4733494;30;20126;-51
2022/06/06 11:29:43;;;;;;;5.25;0.47;;;;;;;;;;4733483;30;20076;-54
2022/06/06 11:32:16;;;;;;;0.95;0.30;;;;;;;;;;4733459;30;20044;-51
2022/06/06 11:35:08;;;;;;;0.82;0.28;;;;;;;;;;4733439;30;20135;-53
2022/06/06 11:37:48;;;;;;;2.88;0.35;;;;;;;;;;4733402;30;20139;-54
2022/06/06 11:40:45;;;;;;;1.42;0.30;;;;;;;;;;4733650;30;20067;-51
2022/06/06 11:43:37;;;;;;;0.55;0.30;;;;;;;;;;4733506;30;20044;-52
2022/06/06 11:46:36;;;;;;;0.33;0.20;;;;;;;;;;4732972;30;20480;-52
2022/06/06 11:49:21;;;;;;;0.55;0.30;;;;;;;;;;4733336;30;20490;-52
2022/06/06 11:51:51;;;;;;;2.78;0.50;;;;;;;;;;4733333;30;20137;-51
2022/06/06 11:54:51;;;;;;;2.45;0.30;;;;;;;;;;4733333;30;20061;-55
2022/06/06 11:57:21;;;;;;;2.17;0.40;;;;;;;;;;4749400;30;20083;-50
2022/06/06 12:00:08;;;;;;;0.75;0.20;;;;;;;;;;4750744;30;20114;-51
2022/06/06 12:03:12;;;;;;;0.85;0.30;;;;;;;;;;4750728;30;20102;-50
2022/06/06 12:05:45;;;;;;;3.15;0.30;;;;;;;;;;4750689;30;20486;-48
2022/06/06 12:08:44;;;;;;;8.07;1.33;;;;;;;;;;4750871;30;20040;-53
2022/06/06 12:11:31;;;;;;;2.17;0.40;;;;;;;;;;4750630;30;20047;-52
2022/06/06 12:14:16;;;;;;;1.08;0.30;;;;;;;;;;4750668;30;20048;-50
2022/06/06 12:16:44;;;;;;;0.55;0.30;;;;;;;;;;4750512;30;20052;-52
2022/06/06 12:19:54;;;;;;;1.90;0.35;;;;;;;;;;4750776;30;20083;-48
2022/06/06 12:22:23;;;;;;;0.55;0.30;;;;;;;;;;4750738;30;20052;-56
2022/06/06 12:25:08;;;;;;;0.32;0.22;;;;;;;;;;4750274;30;20116;-54
2022/06/06 12:28:13;;;;;;;5.35;0.43;;;;;;;;;;4750549;30;20099;-55
2022/06/06 12:31:10;;;;;;;0.47;0.30;;;;;;;;;;4750504;30;20133;-53
2022/06/06 12:34:10;;;;;;;1.08;0.40;;;;;;;;;;4750570;30;20131;-53
2022/06/06 12:37:11;;;;;;;0.68;0.30;;;;;;;;;;4750293;30;20064;-53
2022/06/06 12:40:03;;;;;;;5.43;0.55;;;;;;;;;;4750496;30;20058;-56
2022/06/06 12:42:44;;;;;;;3.92;0.30;;;;;;;;;;4750449;30;20071;-53
2022/06/06 12:45:38;;;;;;;0.50;0.40;;;;;;;;;;4750357;30;20052;-52
2022/06/06 12:48:30;;;;;;;1.40;0.30;;;;;;;;;;4750420;30;20064;-53
2022/06/06 12:51:19;;;;;;;5.82;3.20;;;;;;;;;;4750311;30;20052;-54
2022/06/06 12:54:02;;;;;;;2.33;0.50;;;;;;;;;;4750326;30;20131;-52
2022/06/06 12:56:50;;;;;;;1.63;0.40;;;;;;;;;;4740659;30;20509;-54
2022/06/06 12:59:45;;;;;;;0.55;0.40;;;;;;;;;;4736174;30;20072;-55
2022/06/06 13:02:40;;;;;;;3.35;0.32;;;;;;;;;;4736622;30;20048;-55
2022/06/06 13:05:21;;;;;;;0.85;0.40;;;;;;;;;;4736593;30;20053;-53
2022/06/06 13:08:07;;;;;;;1.27;0.40;;;;;;;;;;4736533;30;20505;-57
2022/06/06 13:10:46;;;;;;;1.23;0.20;;;;;;;;;;4736412;30;20098;-53
2022/06/06 13:13:34;;;;;;;0.82;0.30;;;;;;;;;;4736521;30;20048;-56
2022/06/06 13:16:39;;;;;;;1.20;0.25;;;;;;;;;;4736385;30;20087;-55
2022/06/06 13:19:23;;;;;;;0.90;0.35;;;;;;;;;;4736467;30;20057;-59
2022/06/06 13:22:21;;;;;;;2.45;0.40;;;;;;;;;;4736523;30;20049;-54
2022/06/06 13:25:14;;;;;;;1.15;0.40;;;;;;;;;;4736268;30;20055;-56
2022/06/06 13:28:00;;;;;;;1.53;0.47;;;;;;;;;;4736335;30;20053;-55
2022/06/06 13:30:54;;;;;;;1.38;0.32;;;;;;;;;;4736096;30;20037;-53
2022/06/06 13:33:27;;;;;;;2.05;0.30;;;;;;;;;;4736203;30;20052;-55
2022/06/06 13:35:54;;;;;;;;;;;;;;;;;;4736489;30;20059;-54
2022/06/06 13:38:39;;;;;;;0.98;0.45;;;;;;;;;;4736246;30;19933;-53
2022/06/06 13:41:12;;;;;;;1.42;0.28;;;;;;;;;;4736107;30;20049;-54
2022/06/06 13:43:48;;;;;;;;;;;;;;;;;;4736336;30;20045;-56
2022/06/06 13:46:26;;;;;;;0.77;0.32;;;;;;;;;;4735855;30;19973;-58
2022/06/06 13:49:19;;;;;;;2.63;0.40;;;;;;;;;;4735799;30;20568;-53
2022/06/06 13:52:01;;;;;;;4.80;1.00;;;;;;;;;;4735802;30;20131;-54
2022/06/06 13:54:36;;;;;;;2.15;0.40;;;;;;;;;;4735636;30;20063;-55
2022/06/06 13:57:03;;;;;;;0.70;0.40;;;;;;;;;;4749881;30;20084;-55
2022/06/06 13:59:52;;;;;;;2.40;0.30;;;;;;;;;;4753292;30;20056;-54
2022/06/06 14:02:35;;;;;;;1.13;0.47;;;;;;;;;;4753384;30;20046;-56
2022/06/06 14:05:23;;;;;;;3.38;0.50;;;;;;;;;;4753313;30;20052;-53
2022/06/06 14:08:26;;;;;;;1.80;0.65;;;;;;;;;;4752893;30;20048;-57
2022/06/06 14:10:54;;;;;;;2.38;0.55;;;;;;;;;;4751045;30;20048;-58
2022/06/06 14:13:36;;;;;;;0.77;0.32;;;;;;;;;;4752778;30;20082;-55
2022/06/06 14:16:36;;;;;;;0.45;0.22;;;;;;;;;;4753102;30;20079;-54
2022/06/06 14:19:46;;;;;;;1.88;0.40;;;;;;;;;;4753039;30;20044;-53
2022/06/06 14:22:30;;;;;;;1.85;0.50;;;;;;;;;;4752480;30;20536;-55
2022/06/06 14:25:01;;;;;;;2.00;0.30;;;;;;;;;;4752877;30;20532;-55
2022/06/06 14:27:31;;;;;;;1.27;0.50;;;;;;;;;;4752699;30;20059;-56
2022/06/06 14:30:02;;;;;;;0.98;0.35;;;;;;;;;;4752795;30;20607;-54
2022/06/06 14:32:46;;;;;;;0.80;0.40;;;;;;;;;;4752651;30;20055;-55
2022/06/06 14:35:16;;;;;;;2.28;0.47;;;;;;;;;;4752856;30;20125;-56
2022/06/06 14:37:46;;;;;;;0.85;0.30;;;;;;;;;;4752669;30;20097;-54
2022/06/06 14:40:37;;;;;;;1.88;0.40;;;;;;;;;;4752586;30;20044;-55
2022/06/06 14:43:07;;;;;;;2.50;0.38;;;;;;;;;;4752662;30;20048;-56
2022/06/06 14:45:38;;;;;;;2.63;0.55;;;;;;;;;;4752556;30;20483;-54
2022/06/06 14:48:09;;;;;;;2.90;0.47;;;;;;;;;;4752221;30;20052;-54
2022/06/06 14:50:53;;;;;;;1.77;0.43;;;;;;;;;;4752400;30;20114;-58
2022/06/06 14:53:28;;;;;;;2.35;0.60;;;;;;;;;;4752437;30;20127;-57
2022/06/06 14:56:00;;;;;;;1.08;0.32;;;;;;;;;;4746626;30;20087;-56
2022/06/06 14:58:32;;;;;;;1.13;0.40;;;;;;;;;;4734676;30;20405;-55
2022/06/06 15:01:07;;;;;;;0.73;0.40;;;;;;;;;;4734540;30;20052;-55
2022/06/06 15:03:44;;;;;;;3.22;1.75;;;;;;;;;;4734565;30;20057;-55
2022/06/06 15:06:21;;;;;;;2.30;0.77;;;;;;;;;;4734535;30;20063;-56
2022/06/06 15:09:00;;;;;;;1.95;0.40;;;;;;;;;;4734442;30;20052;-57
2022/06/06 15:11:32;;;;;;;4.78;0.50;;;;;;;;;;4734439;30;20099;-55
2022/06/06 15:14:24;;;;;;;0.85;0.40;;;;;;;;;;4734599;30;20040;-57
2022/06/06 15:16:52;;;;;;;4.28;0.80;;;;;;;;;;4734334;30;20052;-58
2022/06/06 15:19:25;;;;;;;1.08;0.40;;;;;;;;;;4733958;30;20056;-54
2022/06/06 15:21:54;;;;;;;1.85;0.50;;;;;;;;;;4734235;30;20048;-55
2022/06/06 15:24:32;;;;;;;2.47;0.50;;;;;;;;;;4734270;30;20135;-56
2022/06/06 15:27:24;;;;;;;2.72;0.50;;;;;;;;;;4762382;30;20503;-57
2022/06/06 15:30:01;;;;;;;51.88;29.08;;;;;;;;;;4734164;30;20071;-55
2022/06/06 15:32:54;;;;;;;5.40;2.35;;;;;;;;;;4734365;30;20468;-56
2022/06/06 15:35:52;;;;;;;3.17;0.88;;;;;;;;;;4734308;30;20102;-56
2022/06/06 15:38:52;;;;;;;2.50;0.50;;;;;;;;;;4734126;30;20512;-55
2022/06/06 15:41:22;;;;;;;2.75;0.68;;;;;;;;;;4734048;30;20111;-56
2022/06/06 15:44:15;;;;;;;0.80;0.35;;;;;;;;;;4734024;30;20124;-55
2022/06/06 15:46:57;;;;;;;5.63;0.63;;;;;;;;;;4733835;30;20505;-58
2022/06/06 15:49:28;;;;;;;1.23;0.30;;;;;;;;;;4733855;30;20087;-56
2022/06/06 15:52:31;;;;;;;1.92;0.40;;;;;;;;;;4733982;30;20553;-54
2022/06/06 15:55:12;;;;;;;0.47;0.40;;;;;;;;;;4733998;30;20049;-58
2022/06/06 15:58:03;;;;;;;1.85;0.47;;;;;;;;;;4716292;30;20103;-57
2022/06/06 16:00:38;;;;;;;2.30;0.43;;;;;;;;;;4716666;30;20505;-55
2022/06/06 16:03:44;;;;;;;2.15;0.45;;;;;;;;;;4744293;30;20055;-56
2022/06/06 16:06:14;;;;;;;22.55;11.98;;;;;;;;;;4716404;30;20057;-55
2022/06/06 16:08:56;;;;;;;4.20;0.85;;;;;;;;;;4716204;30;20089;-56
2022/06/06 16:11:48;;;;;;;5.55;1.20;;;;;;;;;;4716364;30;20053;-56
2022/06/06 16:15:01;;;;;;;2.22;0.50;;;;;;;;;;4720350;30;20053;-56
2022/06/06 16:17:48;;;;;;;0.77;0.30;;;;;;;;;;4716916;30;20410;-56
2022/06/06 16:20:19;;;;;;;2.30;0.40;;;;;;;;;;4716106;30;20585;-58
2022/06/06 16:22:52;;;;;;;2.22;0.60;;;;;;;;;;4716359;30;20053;-58
2022/06/06 16:25:26;;;;;;;3.40;0.70;;;;;;;;;;4716546;30;20395;-58
2022/06/06 16:28:17;;;;;;;2.28;0.45;;;;;;;;;;4716304;30;20057;-56
2022/06/06 16:30:47;;;;;;;1.58;0.50;;;;;;;;;;4717109;30;20078;-55
2022/06/06 16:33:22;;;;;;;0.95;0.35;;;;;;;;;;4719742;30;20045;-56
2022/06/06 16:36:08;;;;;;;2.13;0.55;;;;;;;;;;4719726;30;20072;-56